Time;durP1;ratioP1;P1;durP2;ratioP2;P2;SDS_P1;SDS_P2;PMS_P1;PMS_P2;Temp;Humidity;BMP_temperature;BMP_pressure;BME280_temperature;BME280_humidity;BME280_pressure;Samples;Min_cycle;Max_cycle;Signal;HPM_P1;HPM_P2
2023/08/05 00:00:50;;;;;;;;;;;15.50;99.90;;;;;;7322622;19;111490;-70
2023/08/05 00:03:17;;;;;;;;;;;15.50;99.90;;;;;;7333933;19;108993;-69
2023/08/05 00:05:44;;;;;;;;;;;15.50;99.90;;;;;;7329645;19;110439;-69
2023/08/05 00:08:12;;;;;;;;;;;15.50;99.90;;;;;;7338126;19;109149;-69
2023/08/05 00:10:42;;;;;;;;;;;15.40;99.90;;;;;;7328502;19;109762;-69
2023/08/05 00:13:10;;;;;;;;;;;15.40;99.90;;;;;;7329398;19;110732;-69
2023/08/05 00:15:37;;;;;;;;;;;15.30;99.90;;;;;;7333136;19;109547;-69
2023/08/05 00:18:04;;;;;;;;;;;15.40;99.90;;;;;;7334406;19;111260;-69
2023/08/05 00:20:31;;;;;;;;;;;15.40;99.90;;;;;;7339589;19;110349;-70
2023/08/05 00:22:58;;;;;;;;;;;15.30;99.90;;;;;;7336395;19;109207;-69
2023/08/05 00:25:25;;;;;;;;;;;15.30;99.90;;;;;;7338099;19;109353;-69
2023/08/05 00:27:53;;;;;;;;;;;15.30;99.90;;;;;;7336293;19;111038;-68
2023/08/05 00:30:20;;;;;;;;;;;15.30;99.90;;;;;;7340847;19;112467;-69
2023/08/05 00:32:47;;;;;;;;;;;15.30;99.90;;;;;;7335467;19;108922;-69
2023/08/05 00:35:15;;;;;;;;;;;15.30;99.90;;;;;;7333665;19;109276;-69
2023/08/05 00:37:42;;;;;;;;;;;15.30;99.90;;;;;;7322949;19;109152;-69
2023/08/05 00:40:10;;;;;;;;;;;15.40;99.90;;;;;;7324842;19;110427;-72
2023/08/05 00:42:37;;;;;;;;;;;15.40;99.90;;;;;;7331529;19;108739;-69
2023/08/05 00:45:04;;;;;;;;;;;15.30;99.90;;;;;;7332211;19;109703;-70
2023/08/05 00:47:32;;;;;;;;;;;15.30;99.90;;;;;;7333143;19;108818;-70
2023/08/05 00:49:59;;;;;;;;;;;15.20;99.90;;;;;;7332641;19;108974;-70
2023/08/05 00:52:26;;;;;;;;;;;15.20;99.90;;;;;;7336962;19;109313;-70
2023/08/05 00:54:53;;;;;;;;;;;15.20;99.90;;;;;;7333770;19;109392;-70
2023/08/05 00:57:22;;;;;;;;;;;15.20;99.90;;;;;;7336000;19;109864;-72
2023/08/05 00:59:49;;;;;;;;;;;15.20;99.90;;;;;;7339050;19;108742;-72
2023/08/05 01:05:16;;;;;;;;;;;15.20;99.90;;;;;;7333446;19;109262;-74
2023/08/05 01:07:43;;;;;;;;;;;15.20;99.90;;;;;;7331913;19;109302;-73
2023/08/05 01:10:10;;;;;;;;;;;15.20;99.90;;;;;;7335572;19;109213;-70
2023/08/05 01:12:38;;;;;;;;;;;15.20;99.90;;;;;;7337052;19;109992;-70
2023/08/05 01:17:40;;;;;;;;;;;15.10;99.90;;;;;;7335633;19;109870;-88
2023/08/05 01:20:09;;;;;;;;;;;15.10;99.90;;;;;;7338490;19;108761;-89
2023/08/05 01:22:41;;;;;;;;;;;15.00;99.90;;;;;;7342955;19;111480;-88
2023/08/05 01:25:28;;;;;;;;;;;15.00;99.90;;;;;;7342587;19;110972;-88
2023/08/05 01:27:56;;;;;;;;;;;15.00;99.90;;;;;;7336502;19;108741;-88
2023/08/05 01:30:24;;;;;;;;;;;15.00;99.90;;;;;;7339839;19;109834;-88
2023/08/05 01:32:54;;;;;;;;;;;14.90;99.90;;;;;;7337700;19;110175;-89
2023/08/05 01:35:22;;;;;;;;;;;14.90;99.90;;;;;;7335791;19;110627;-89
2023/08/05 01:37:50;;;;;;;;;;;15.00;99.90;;;;;;7347135;19;109280;-88
2023/08/05 01:40:17;;;;;;;;;;;15.00;99.90;;;;;;7338248;19;109831;-88
2023/08/05 01:42:44;;;;;;;;;;;15.00;99.90;;;;;;7341648;19;109042;-88
2023/08/05 01:45:12;;;;;;;;;;;15.00;99.90;;;;;;7340089;19;110181;-88
2023/08/05 01:47:39;;;;;;;;;;;15.00;99.90;;;;;;7337021;19;108959;-88
2023/08/05 01:50:06;;;;;;;;;;;15.00;99.90;;;;;;7334801;19;112540;-89
2023/08/05 01:52:33;;;;;;;;;;;15.00;99.90;;;;;;7338130;19;110709;-88
2023/08/05 01:55:03;;;;;;;;;;;15.00;99.90;;;;;;7335804;19;108855;-88
2023/08/05 01:57:30;;;;;;;;;;;14.90;99.90;;;;;;7342222;19;112607;-87
2023/08/05 01:59:57;;;;;;;;;;;14.90;99.90;;;;;;7335585;19;111055;-88
2023/08/05 02:02:24;;;;;;;;;;;14.90;99.90;;;;;;7336821;19;112752;-88
2023/08/05 02:04:55;;;;;;;;;;;14.80;99.90;;;;;;7338669;19;110421;-88
2023/08/05 02:07:22;;;;;;;;;;;14.80;99.90;;;;;;7334999;19;108456;-88
2023/08/05 02:09:49;;;;;;;;;;;14.80;99.90;;;;;;7336516;19;111585;-88
2023/08/05 02:12:17;;;;;;;;;;;14.70;99.90;;;;;;7335352;19;112728;-88
2023/08/05 02:14:46;;;;;;;;;;;14.60;99.90;;;;;;7337393;19;110102;-88
2023/08/05 02:17:13;;;;;;;;;;;14.60;99.90;;;;;;7332739;19;108763;-87
2023/08/05 02:19:40;;;;;;;;;;;14.50;99.90;;;;;;7342970;19;110064;-88
2023/08/05 02:22:07;;;;;;;;;;;14.50;99.90;;;;;;7335791;19;108884;-88
2023/08/05 02:24:34;;;;;;;;;;;14.50;99.90;;;;;;7333847;19;110184;-87
2023/08/05 02:27:01;;;;;;;;;;;14.50;99.90;;;;;;7333533;19;109809;-88
2023/08/05 02:29:28;;;;;;;;;;;14.60;99.90;;;;;;7335034;19;109496;-88
2023/08/05 02:31:56;;;;;;;;;;;14.60;99.90;;;;;;7333383;19;110985;-88
2023/08/05 02:34:23;;;;;;;;;;;14.50;99.90;;;;;;7335567;19;109059;-88
2023/08/05 02:36:50;;;;;;;;;;;14.60;99.90;;;;;;7331800;19;109588;-88
2023/08/05 02:39:18;;;;;;;;;;;14.60;99.90;;;;;;7333149;19;108965;-88
2023/08/05 02:41:47;;;;;;;;;;;14.60;99.90;;;;;;7343247;19;108955;-88
2023/08/05 02:44:14;;;;;;;;;;;14.60;99.90;;;;;;7335127;19;111933;-88
2023/08/05 02:46:42;;;;;;;;;;;14.60;99.90;;;;;;7334471;19;108864;-88
2023/08/05 02:49:09;;;;;;;;;;;14.60;99.90;;;;;;7339351;19;108754;-87
2023/08/05 02:51:36;;;;;;;;;;;14.50;99.90;;;;;;7333072;19;111423;-88
2023/08/05 02:54:04;;;;;;;;;;;14.60;99.90;;;;;;7335406;19;108993;-88
2023/08/05 02:56:34;;;;;;;;;;;14.60;99.90;;;;;;7337042;19;109970;-88
2023/08/05 02:59:01;;;;;;;;;;;14.60;99.90;;;;;;7334949;19;110240;-87
2023/08/05 03:01:28;;;;;;;;;;;14.60;99.90;;;;;;7335553;19;110599;-87
2023/08/05 03:03:56;;;;;;;;;;;14.60;99.90;;;;;;7341960;19;109641;-89
2023/08/05 03:06:23;;;;;;;;;;;14.60;99.90;;;;;;7336585;19;109269;-87
2023/08/05 03:08:50;;;;;;;;;;;14.60;99.90;;;;;;7336704;19;109224;-87
2023/08/05 03:11:17;;;;;;;;;;;14.60;99.90;;;;;;7334191;19;110313;-90
2023/08/05 03:13:44;;;;;;;;;;;14.60;99.90;;;;;;7336828;19;108715;-87
2023/08/05 03:16:13;;;;;;;;;;;14.60;99.90;;;;;;7335203;19;110830;-87
2023/08/05 03:18:40;;;;;;;;;;;14.60;99.90;;;;;;7334583;19;113056;-87
2023/08/05 03:21:07;;;;;;;;;;;14.50;99.90;;;;;;7334655;19;108691;-87
2023/08/05 03:23:35;;;;;;;;;;;14.50;99.90;;;;;;7332536;19;108919;-89
2023/08/05 03:26:02;;;;;;;;;;;14.50;99.90;;;;;;7337488;19;110879;-89
2023/08/05 03:28:30;;;;;;;;;;;14.60;99.90;;;;;;7333528;19;109100;-89
2023/08/05 03:30:58;;;;;;;;;;;14.60;99.90;;;;;;7335310;19;108983;-89
2023/08/05 03:33:25;;;;;;;;;;;14.50;99.90;;;;;;7330664;19;109838;-89
2023/08/05 03:35:53;;;;;;;;;;;14.60;99.90;;;;;;7338106;19;108766;-89
2023/08/05 03:38:20;;;;;;;;;;;14.50;99.90;;;;;;7336575;19;110728;-87
2023/08/05 03:40:47;;;;;;;;;;;14.50;99.90;;;;;;7331813;19;109944;-87
2023/08/05 03:43:14;;;;;;;;;;;14.50;99.90;;;;;;7334236;19;109535;-88
2023/08/05 03:45:48;;;;;;;;;;;14.50;99.90;;;;;;7332977;19;110183;-88
2023/08/05 03:48:15;;;;;;;;;;;14.50;99.90;;;;;;7337181;19;111024;-88
2023/08/05 03:50:42;;;;;;;;;;;14.50;99.90;;;;;;7342321;19;113278;-88
2023/08/05 03:53:09;;;;;;;;;;;14.50;99.90;;;;;;7338022;19;108622;-87
2023/08/05 03:55:36;;;;;;;;;;;14.50;99.90;;;;;;7341936;19;112025;-87
2023/08/05 03:58:04;;;;;;;;;;;14.50;99.90;;;;;;7337522;19;110364;-87
2023/08/05 04:00:31;;;;;;;;;;;14.50;99.90;;;;;;7342330;19;108534;-88
2023/08/05 04:02:59;;;;;;;;;;;14.50;99.90;;;;;;7342362;19;108806;-87
2023/08/05 04:05:26;;;;;;;;;;;14.50;99.90;;;;;;7342138;19;110615;-89
2023/08/05 04:07:53;;;;;;;;;;;14.50;99.90;;;;;;7345334;19;108598;-87
2023/08/05 04:10:22;;;;;;;;;;;14.50;99.90;;;;;;7340267;19;111086;-87
2023/08/05 04:12:49;;;;;;;;;;;14.50;99.90;;;;;;7340488;19;109058;-87
2023/08/05 04:15:18;;;;;;;;;;;14.50;99.90;;;;;;7338164;19;110177;-87
2023/08/05 04:17:47;;;;;;;;;;;14.50;99.90;;;;;;7336137;19;110340;-88
2023/08/05 04:20:15;;;;;;;;;;;14.50;99.90;;;;;;7337782;19;109004;-87
2023/08/05 04:22:43;;;;;;;;;;;14.50;99.90;;;;;;7338978;19;109258;-87
2023/08/05 04:25:11;;;;;;;;;;;14.50;99.90;;;;;;7342225;19;110809;-87
2023/08/05 04:27:39;;;;;;;;;;;14.50;99.90;;;;;;7336753;19;108589;-86
2023/08/05 04:30:07;;;;;;;;;;;14.50;99.90;;;;;;7345353;19;108879;-88
2023/08/05 04:32:34;;;;;;;;;;;14.50;99.90;;;;;;7340173;19;108919;-87
2023/08/05 04:35:03;;;;;;;;;;;14.50;99.90;;;;;;7342745;19;109032;-87
2023/08/05 04:37:31;;;;;;;;;;;14.50;99.90;;;;;;7334197;19;110193;-88
2023/08/05 04:39:58;;;;;;;;;;;14.50;99.90;;;;;;7338054;19;108791;-88
2023/08/05 04:42:25;;;;;;;;;;;14.50;99.90;;;;;;7337634;19;109754;-87
2023/08/05 04:44:52;;;;;;;;;;;14.50;99.90;;;;;;7337042;19;111916;-87
2023/08/05 04:47:19;;;;;;;;;;;14.50;99.90;;;;;;7336701;19;108699;-87
2023/08/05 04:49:46;;;;;;;;;;;14.50;99.90;;;;;;7338753;19;111311;-87
2023/08/05 04:52:14;;;;;;;;;;;14.50;99.90;;;;;;7341065;19;110168;-87
2023/08/05 04:54:43;;;;;;;;;;;14.50;99.90;;;;;;7338855;19;108912;-88
2023/08/05 04:57:11;;;;;;;;;;;14.50;99.90;;;;;;7339768;19;108820;-87
2023/08/05 04:59:39;;;;;;;;;;;14.50;99.90;;;;;;7337912;19;109538;-88
2023/08/05 05:02:07;;;;;;;;;;;14.50;99.90;;;;;;7337294;19;109467;-87
2023/08/05 05:04:34;;;;;;;;;;;14.50;99.90;;;;;;7332686;19;110496;-87
2023/08/05 05:07:01;;;;;;;;;;;14.50;99.90;;;;;;7338613;19;109570;-87
2023/08/05 05:09:28;;;;;;;;;;;14.50;99.90;;;;;;7338012;19;109907;-87
2023/08/05 05:11:55;;;;;;;;;;;14.60;99.90;;;;;;7336313;19;110215;-87
2023/08/05 05:14:22;;;;;;;;;;;14.60;99.90;;;;;;7341129;19;108686;-87
2023/08/05 05:16:49;;;;;;;;;;;14.60;99.90;;;;;;7336268;19;109990;-88
2023/08/05 05:19:17;;;;;;;;;;;14.60;99.90;;;;;;7333465;19;109255;-87
2023/08/05 05:21:44;;;;;;;;;;;14.70;99.90;;;;;;7342774;19;109199;-87
2023/08/05 05:26:57;;;;;;;;;;;14.70;99.90;;;;;;7328377;19;110340;-70
2023/08/05 05:29:24;;;;;;;;;;;14.80;99.90;;;;;;7337408;19;109692;-70
2023/08/05 05:31:51;;;;;;;;;;;14.90;99.90;;;;;;7333725;19;109431;-70
2023/08/05 05:34:19;;;;;;;;;;;14.90;99.90;;;;;;7337214;19;108592;-70
2023/08/05 05:36:46;;;;;;;;;;;14.90;99.90;;;;;;7344305;19;111385;-70
2023/08/05 05:39:13;;;;;;;;;;;15.00;99.90;;;;;;7337502;19;109299;-70
2023/08/05 05:41:40;;;;;;;;;;;15.00;99.90;;;;;;7335497;19;109944;-70
2023/08/05 05:44:07;;;;;;;;;;;15.00;99.90;;;;;;7336401;19;109113;-70
2023/08/05 05:46:34;;;;;;;;;;;15.10;99.90;;;;;;7334767;19;108849;-70
2023/08/05 05:49:03;;;;;;;;;;;15.10;99.90;;;;;;7334710;19;109750;-69
2023/08/05 05:51:30;;;;;;;;;;;15.10;99.90;;;;;;7331929;19;109687;-69
2023/08/05 05:53:57;;;;;;;;;;;15.20;99.90;;;;;;7336350;19;109130;-69
2023/08/05 05:56:24;;;;;;;;;;;15.20;99.90;;;;;;7341216;19;109281;-70
2023/08/05 05:58:51;;;;;;;;;;;15.20;99.90;;;;;;7334010;19;108429;-70
2023/08/05 06:01:19;;;;;;;;;;;15.20;99.90;;;;;;7335085;19;108578;-70
2023/08/05 06:03:46;;;;;;;;;;;15.20;99.90;;;;;;7338136;19;109272;-70
2023/08/05 06:06:14;;;;;;;;;;;15.20;99.90;;;;;;7333014;19;108571;-70
2023/08/05 06:08:41;;;;;;;;;;;15.30;99.90;;;;;;7337834;19;108842;-70
2023/08/05 06:11:10;;;;;;;;;;;15.30;99.90;;;;;;7333821;19;111647;-69
2023/08/05 06:13:37;;;;;;;;;;;15.40;99.90;;;;;;7332912;19;108918;-69
2023/08/05 06:16:05;;;;;;;;;;;15.40;99.90;;;;;;7329359;19;109718;-69
2023/08/05 06:18:32;;;;;;;;;;;15.40;99.90;;;;;;7340535;19;110694;-69
2023/08/05 06:20:59;;;;;;;;;;;15.50;99.90;;;;;;7334401;19;109065;-70
2023/08/05 06:23:26;;;;;;;;;;;15.60;99.90;;;;;;7334603;19;109877;-69
2023/08/05 06:25:53;;;;;;;;;;;15.70;99.90;;;;;;7332795;19;108718;-69
2023/08/05 06:28:21;;;;;;;;;;;15.70;99.90;;;;;;7336561;19;109754;-69
2023/08/05 06:30:49;;;;;;;;;;;15.80;99.90;;;;;;7333194;19;109676;-70
2023/08/05 06:33:16;;;;;;;;;;;15.90;99.90;;;;;;7334733;19;109000;-69
2023/08/05 06:35:43;;;;;;;;;;;16.00;99.90;;;;;;7336682;19;110060;-69
2023/08/05 06:38:11;;;;;;;;;;;16.00;99.90;;;;;;7334863;19;109189;-70
2023/08/05 06:40:41;;;;;;;;;;;16.10;99.90;;;;;;7339738;19;109543;-69
2023/08/05 06:43:08;;;;;;;;;;;16.10;99.90;;;;;;7334345;19;110922;-67
2023/08/05 06:45:35;;;;;;;;;;;16.10;99.90;;;;;;7334893;19;109545;-69
2023/08/05 06:48:03;;;;;;;;;;;16.20;99.90;;;;;;7334433;19;109159;-69
2023/08/05 06:50:30;;;;;;;;;;;16.20;99.90;;;;;;7336167;19;110149;-69
2023/08/05 06:52:57;;;;;;;;;;;16.30;99.90;;;;;;7333507;19;110239;-69
2023/08/05 06:55:24;;;;;;;;;;;16.40;99.90;;;;;;7336801;19;108458;-69
2023/08/05 06:57:51;;;;;;;;;;;16.50;99.90;;;;;;7333637;19;110248;-70
2023/08/05 07:00:18;;;;;;;;;;;16.50;99.90;;;;;;7335694;19;108798;-70
2023/08/05 07:02:45;;;;;;;;;;;16.60;99.90;;;;;;7338422;19;108770;-69
2023/08/05 07:05:12;;;;;;;;;;;16.70;99.90;;;;;;7333997;19;109547;-69
2023/08/05 07:07:39;;;;;;;;;;;16.70;99.90;;;;;;7329317;19;108849;-69
2023/08/05 07:10:08;;;;;;;;;;;16.90;99.90;;;;;;7333495;19;110270;-69
2023/08/05 07:12:35;;;;;;;;;;;16.90;99.90;;;;;;7332040;19;110161;-69
2023/08/05 07:15:02;;;;;;;;;;;17.00;99.90;;;;;;7332863;19;108551;-69
2023/08/05 07:17:29;;;;;;;;;;;17.10;99.90;;;;;;7330809;19;108864;-70
2023/08/05 07:19:57;;;;;;;;;;;17.20;99.90;;;;;;7334042;19;108746;-69
2023/08/05 07:22:24;;;;;;;;;;;17.30;99.90;;;;;;7327216;19;109179;-70
2023/08/05 07:24:54;;;;;;;;;;;17.30;99.90;;;;;;7332848;19;110221;-70
2023/08/05 07:27:22;;;;;;;;;;;17.40;99.90;;;;;;7332479;19;109471;-69
2023/08/05 07:29:49;;;;;;;;;;;17.50;99.90;;;;;;7333669;19;109120;-69
2023/08/05 07:32:16;;;;;;;;;;;17.50;99.90;;;;;;7329988;19;109312;-70
2023/08/05 07:34:43;;;;;;;;;;;17.60;99.90;;;;;;7332578;19;110041;-69
2023/08/05 07:37:13;;;;;;;;;;;17.70;99.90;;;;;;7330449;19;109042;-73
2023/08/05 07:39:45;;;;;;;;;;;17.80;99.90;;;;;;7332523;19;110242;-69
2023/08/05 07:42:15;;;;;;;;;;;18.00;99.90;;;;;;7329163;19;109311;-69
2023/08/05 07:44:42;;;;;;;;;;;18.00;99.90;;;;;;7333487;19;109162;-70
2023/08/05 07:47:10;;;;;;;;;;;18.10;99.90;;;;;;7333190;19;110127;-69
2023/08/05 07:49:37;;;;;;;;;;;18.20;99.90;;;;;;7327414;19;110168;-70
2023/08/05 07:52:06;;;;;;;;;;;18.30;99.90;;;;;;7332612;19;108582;-74
2023/08/05 07:54:33;;;;;;;;;;;18.40;99.90;;;;;;7332271;19;108730;-74
2023/08/05 07:57:00;;;;;;;;;;;18.40;99.90;;;;;;7330599;19;110212;-72
2023/08/05 07:59:28;;;;;;;;;;;18.50;99.90;;;;;;7327319;19;108794;-77
2023/08/05 08:01:57;;;;;;;;;;;18.60;99.90;;;;;;7334213;19;109605;-72
2023/08/05 08:04:24;;;;;;;;;;;18.60;99.90;;;;;;7331671;19;110228;-75
2023/08/05 08:06:52;;;;;;;;;;;18.70;99.90;;;;;;7338624;19;109682;-75
2023/08/05 08:09:19;;;;;;;;;;;18.70;99.90;;;;;;7331873;19;110137;-76
2023/08/05 08:11:46;;;;;;;;;;;18.80;99.90;;;;;;7333695;19;108986;-77
2023/08/05 08:14:13;;;;;;;;;;;18.80;99.90;;;;;;7328032;19;109282;-75
2023/08/05 08:16:40;;;;;;;;;;;18.90;99.90;;;;;;7332801;19;110157;-75
2023/08/05 08:19:08;;;;;;;;;;;19.00;99.90;;;;;;7332290;19;109410;-73
2023/08/05 08:21:35;;;;;;;;;;;19.00;99.90;;;;;;7330698;19;108515;-77
2023/08/05 08:24:02;;;;;;;;;;;19.00;99.90;;;;;;7329999;19;110121;-72
2023/08/05 08:26:29;;;;;;;;;;;19.10;99.90;;;;;;7334789;19;110300;-73
2023/08/05 08:28:56;;;;;;;;;;;19.10;99.90;;;;;;7334167;19;109565;-74
2023/08/05 08:31:29;;;;;;;;;;;19.20;99.90;;;;;;7333363;19;109068;-74
2023/08/05 08:33:56;;;;;;;;;;;19.30;99.90;;;;;;7330145;19;110350;-73
2023/08/05 08:36:24;;;;;;;;;;;19.40;99.90;;;;;;7330855;19;109119;-73
2023/08/05 08:38:51;;;;;;;;;;;19.50;99.90;;;;;;7338498;19;108613;-77
2023/08/05 08:41:18;;;;;;;;;;;19.60;99.90;;;;;;7340403;19;108856;-77
2023/08/05 08:43:46;;;;;;;;;;;19.60;99.90;;;;;;7338730;19;109875;-77
2023/08/05 08:46:13;;;;;;;;;;;19.60;99.90;;;;;;7333732;19;108875;-72
2023/08/05 08:48:43;;;;;;;;;;;19.70;99.90;;;;;;7340358;19;109508;-71
2023/08/05 08:51:11;;;;;;;;;;;19.70;99.90;;;;;;7342499;19;109231;-72
2023/08/05 08:53:39;;;;;;;;;;;19.90;99.90;;;;;;7338281;19;109279;-77
2023/08/05 08:56:06;;;;;;;;;;;19.90;99.90;;;;;;7336171;19;110281;-75
2023/08/05 08:58:34;;;;;;;;;;;20.00;99.90;;;;;;7334064;19;108732;-73
2023/08/05 09:01:03;;;;;;;;;;;20.00;99.90;;;;;;7338275;19;109114;-74
2023/08/05 09:03:32;;;;;;;;;;;20.00;99.90;;;;;;7337979;19;112258;-74
2023/08/05 09:05:59;;;;;;;;;;;20.00;99.90;;;;;;7337817;19;108748;-76
2023/08/05 09:08:26;;;;;;;;;;;20.00;99.90;;;;;;7338310;19;108437;-76
2023/08/05 09:10:54;;;;;;;;;;;20.00;99.90;;;;;;7337102;19;110167;-73
2023/08/05 09:13:21;;;;;;;;;;;20.00;99.90;;;;;;7343477;19;108828;-77
2023/08/05 09:15:49;;;;;;;;;;;20.10;99.90;;;;;;7339565;19;109893;-76
2023/08/05 09:18:16;;;;;;;;;;;20.10;99.90;;;;;;7339128;19;108912;-73
2023/08/05 09:20:43;;;;;;;;;;;20.20;99.90;;;;;;7336476;19;111000;-70
2023/08/05 09:23:10;;;;;;;;;;;20.20;99.90;;;;;;7335747;19;109199;-69
2023/08/05 09:25:39;;;;;;;;;;;20.30;99.90;;;;;;7335219;19;109465;-70
2023/08/05 09:28:06;;;;;;;;;;;20.30;99.90;;;;;;7335040;19;110245;-66
2023/08/05 09:30:33;;;;;;;;;;;20.30;99.90;;;;;;7336006;19;110676;-68
2023/08/05 09:33:01;;;;;;;;;;;20.30;99.90;;;;;;7338673;19;108929;-65
2023/08/05 09:35:29;;;;;;;;;;;20.20;99.90;;;;;;7337482;19;111055;-71
2023/08/05 09:37:56;;;;;;;;;;;20.30;99.90;;;;;;7337427;19;109841;-69
2023/08/05 09:40:26;;;;;;;;;;;20.40;99.90;;;;;;7334437;19;108742;-71
2023/08/05 09:42:57;;;;;;;;;;;20.50;99.90;;;;;;7333106;19;113184;-70
2023/08/05 09:45:28;;;;;;;;;;;20.50;99.90;;;;;;7333743;19;108850;-70
2023/08/05 09:48:03;;;;;;;;;;;20.40;99.90;;;;;;7332854;19;109197;-71
2023/08/05 09:50:36;;;;;;;;;;;20.40;99.90;;;;;;7334902;19;109397;-71
2023/08/05 09:53:06;;;;;;;;;;;20.40;99.90;;;;;;7334719;19;110127;-70
2023/08/05 09:55:34;;;;;;;;;;;20.40;99.90;;;;;;7331449;19;109532;-70
2023/08/05 09:58:07;;;;;;;;;;;20.40;99.90;;;;;;7339917;19;110110;-72
2023/08/05 10:00:40;;;;;;;;;;;20.40;99.90;;;;;;7335409;19;109380;-71
2023/08/05 10:03:13;;;;;;;;;;;20.40;99.90;;;;;;7334549;19;112187;-72
2023/08/05 10:05:44;;;;;;;;;;;20.40;99.90;;;;;;7334473;19;111023;-71
2023/08/05 10:08:13;;;;;;;;;;;20.50;99.90;;;;;;7336953;19;109015;-71
2023/08/05 10:10:41;;;;;;;;;;;20.60;99.90;;;;;;7336917;19;110609;-71
2023/08/05 10:13:20;;;;;;;;;;;20.60;99.90;;;;;;7337265;19;108730;-71
2023/08/05 10:15:49;;;;;;;;;;;20.60;99.90;;;;;;7334201;19;109539;-71
2023/08/05 10:18:17;;;;;;;;;;;20.60;99.90;;;;;;7339727;19;109180;-71
2023/08/05 10:20:53;;;;;;;;;;;20.50;99.90;;;;;;7333980;19;108697;-71
2023/08/05 10:23:32;;;;;;;;;;;20.50;99.90;;;;;;7336016;19;109155;-72
2023/08/05 10:26:00;;;;;;;;;;;20.40;99.90;;;;;;7335510;19;108516;-72
2023/08/05 10:28:39;;;;;;;;;;;20.40;99.90;;;;;;7330791;19;109726;31
2023/08/05 10:31:28;;;;;;;;;;;20.30;99.90;;;;;;7326649;19;109808;-71
2023/08/05 10:34:08;;;;;;;;;;;20.30;99.90;;;;;;7334185;19;112811;-72
2023/08/05 10:36:45;;;;;;;;;;;20.20;99.90;;;;;;7334276;19;113618;-71
2023/08/05 10:39:31;;;;;;;;;;;20.20;99.90;;;;;;7331950;19;110099;-72
2023/08/05 10:41:58;;;;;;;;;;;20.10;99.90;;;;;;7339029;19;108379;-71
2023/08/05 10:44:35;;;;;;;;;;;20.20;99.90;;;;;;7331468;19;110248;-71
2023/08/05 10:47:03;;;;;;;;;;;20.10;99.90;;;;;;7332716;19;108995;-72
2023/08/05 10:49:30;;;;;;;;;;;20.00;99.90;;;;;;7330475;19;109608;-72
2023/08/05 10:51:58;;;;;;;;;;;20.00;99.90;;;;;;7335736;19;110485;-72
2023/08/05 10:54:25;;;;;;;;;;;20.00;99.90;;;;;;7334841;19;112384;-72
2023/08/05 10:56:52;;;;;;;;;;;19.90;99.90;;;;;;7332921;19;108922;-72
2023/08/05 10:59:19;;;;;;;;;;;19.90;99.90;;;;;;7329320;19;110160;-72
2023/08/05 11:01:54;;;;;;;;;;;19.90;99.90;;;;;;7334048;19;108550;-72
2023/08/05 11:04:29;;;;;;;;;;;19.80;99.90;;;;;;7338734;19;109675;-72
2023/08/05 11:06:59;;;;;;;;;;;19.80;99.90;;;;;;7337653;19;108561;-72
2023/08/05 11:09:27;;;;;;;;;;;19.80;99.90;;;;;;7333111;19;108560;-73
2023/08/05 11:11:54;;;;;;;;;;;19.70;99.90;;;;;;7332160;19;110128;-72
2023/08/05 11:14:23;;;;;;;;;;;19.70;99.90;;;;;;7329705;19;109075;-72
2023/08/05 11:16:50;;;;;;;;;;;19.70;99.90;;;;;;7332979;19;112911;-72
2023/08/05 11:19:17;;;;;;;;;;;19.70;99.90;;;;;;7331506;19;109793;-73
2023/08/05 11:21:45;;;;;;;;;;;19.70;99.90;;;;;;7332847;19;109194;-71
2023/08/05 11:24:16;;;;;;;;;;;19.70;99.90;;;;;;7332648;19;108663;-71
2023/08/05 11:26:43;;;;;;;;;;;19.80;99.90;;;;;;7337331;19;111003;-71
2023/08/05 11:29:10;;;;;;;;;;;19.80;99.90;;;;;;7332189;19;111687;-72
2023/08/05 11:31:37;;;;;;;;;;;19.80;99.90;;;;;;7328727;19;109614;-72
2023/08/05 11:34:04;;;;;;;;;;;19.80;99.90;;;;;;7332923;19;109325;-72
2023/08/05 11:36:32;;;;;;;;;;;19.80;99.90;;;;;;7331300;19;109378;-72
2023/08/05 11:39:00;;;;;;;;;;;19.70;99.90;;;;;;7330713;19;109194;-72
2023/08/05 11:41:27;;;;;;;;;;;19.70;99.90;;;;;;7327084;19;109270;-72
2023/08/05 11:43:55;;;;;;;;;;;19.70;99.90;;;;;;7331149;19;109055;-72
2023/08/05 11:46:23;;;;;;;;;;;19.60;99.90;;;;;;7332870;19;109347;-73
2023/08/05 11:49:04;;;;;;;;;;;19.50;99.90;;;;;;7337693;19;109826;-71
2023/08/05 11:51:45;;;;;;;;;;;19.50;99.90;;;;;;7330305;19;109748;-72
2023/08/05 11:54:22;;;;;;;;;;;19.40;99.90;;;;;;7332666;19;110944;-72
2023/08/05 11:56:50;;;;;;;;;;;19.30;99.90;;;;;;7331156;19;111064;-72
2023/08/05 11:59:17;;;;;;;;;;;19.20;99.90;;;;;;7326812;19;109952;-72
2023/08/05 12:01:44;;;;;;;;;;;19.20;99.90;;;;;;7327658;19;110992;-72
2023/08/05 12:04:11;;;;;;;;;;;19.20;99.90;;;;;;7328851;19;109365;-72
2023/08/05 12:06:39;;;;;;;;;;;19.20;99.90;;;;;;7330535;19;109837;-72
2023/08/05 12:09:06;;;;;;;;;;;19.10;99.90;;;;;;7329214;19;110114;-72
2023/08/05 12:11:44;;;;;;;;;;;19.10;99.90;;;;;;7336888;19;109647;-72
2023/08/05 12:14:14;;;;;;;;;;;19.00;99.90;;;;;;7337336;19;108897;-72
2023/08/05 12:16:41;;;;;;;;;;;19.00;99.90;;;;;;7336382;19;110134;-71
2023/08/05 12:19:09;;;;;;;;;;;18.90;99.90;;;;;;7335867;19;110333;-72
2023/08/05 12:21:37;;;;;;;;;;;18.80;99.90;;;;;;7337852;19;109175;-73
2023/08/05 12:24:04;;;;;;;;;;;18.80;99.90;;;;;;7336762;19;109472;-71
2023/08/05 12:26:31;;;;;;;;;;;18.80;99.90;;;;;;7335035;19;110535;-71
2023/08/05 12:28:58;;;;;;;;;;;18.70;99.90;;;;;;7335163;19;108650;-71
2023/08/05 12:31:25;;;;;;;;;;;18.70;99.90;;;;;;7342029;19;111385;-71
2023/08/05 12:33:52;;;;;;;;;;;18.60;99.90;;;;;;7336455;19;110923;-72
2023/08/05 12:36:19;;;;;;;;;;;18.70;99.90;;;;;;7336870;19;111795;-72
2023/08/05 12:38:48;;;;;;;;;;;18.70;99.90;;;;;;7334655;19;109206;-72
2023/08/05 12:41:16;;;;;;;;;;;18.60;99.90;;;;;;7337983;19;109363;-72
2023/08/05 12:43:43;;;;;;;;;;;18.60;99.90;;;;;;7335504;19;111101;-72
2023/08/05 12:46:10;;;;;;;;;;;18.60;99.90;;;;;;7334215;19;110808;-73
2023/08/05 12:48:40;;;;;;;;;;;18.60;99.90;;;;;;7337114;19;109004;-78
2023/08/05 12:51:09;;;;;;;;;;;18.60;99.90;;;;;;7335911;19;108483;-77
2023/08/05 12:53:47;;;;;;;;;;;18.60;99.90;;;;;;7346118;19;110522;-73
2023/08/05 12:56:16;;;;;;;;;;;18.70;99.90;;;;;;7337713;19;108817;-71
2023/08/05 12:58:43;;;;;;;;;;;18.70;99.90;;;;;;7336397;19;110928;-72
2023/08/05 13:01:11;;;;;;;;;;;18.70;99.90;;;;;;7336310;19;108868;-72
2023/08/05 13:03:38;;;;;;;;;;;18.70;99.90;;;;;;7333590;19;108713;-71
2023/08/05 13:06:05;;;;;;;;;;;18.70;99.90;;;;;;7334631;19;111033;-72
2023/08/05 13:08:33;;;;;;;;;;;18.80;99.90;;;;;;7336400;19;108675;-72
2023/08/05 13:11:00;;;;;;;;;;;18.80;99.90;;;;;;7338873;19;109097;-73
2023/08/05 13:13:27;;;;;;;;;;;18.80;99.90;;;;;;7334679;19;109259;-72
2023/08/05 13:15:54;;;;;;;;;;;18.80;99.90;;;;;;7339827;19;109701;-72
2023/08/05 13:18:21;;;;;;;;;;;18.80;99.90;;;;;;7335457;19;112451;-73
2023/08/05 13:20:48;;;;;;;;;;;18.80;99.90;;;;;;7337176;19;108774;-75
2023/08/05 13:23:15;;;;;;;;;;;18.80;99.90;;;;;;7335570;19;109836;-77
2023/08/05 13:25:42;;;;;;;;;;;18.80;99.90;;;;;;7332724;19;110045;-73
2023/08/05 13:28:09;;;;;;;;;;;18.80;99.90;;;;;;7338823;19;108381;-78
2023/08/05 13:30:37;;;;;;;;;;;18.80;99.90;;;;;;7332137;19;108848;-76
2023/08/05 13:33:04;;;;;;;;;;;18.80;99.90;;;;;;7334537;19;110170;-73
2023/08/05 13:35:31;;;;;;;;;;;18.80;99.90;;;;;;7332055;19;110476;-74
2023/08/05 13:37:58;;;;;;;;;;;18.70;99.90;;;;;;7337685;19;109796;-72
2023/08/05 13:40:26;;;;;;;;;;;18.70;99.90;;;;;;7333224;19;108703;-73
2023/08/05 13:43:02;;;;;;;;;;;18.70;99.90;;;;;;7337933;19;108751;-72
2023/08/05 13:45:29;;;;;;;;;;;18.70;99.90;;;;;;7332839;19;110784;-72
2023/08/05 13:47:56;;;;;;;;;;;18.70;99.90;;;;;;7339275;19;108921;-86
2023/08/05 13:50:23;;;;;;;;;;;18.80;99.90;;;;;;7340259;19;109040;-86
2023/08/05 13:52:50;;;;;;;;;;;18.80;99.90;;;;;;7339893;19;112939;-86
2023/08/05 13:55:17;;;;;;;;;;;18.80;99.90;;;;;;7336875;19;109554;-86
2023/08/05 13:57:45;;;;;;;;;;;18.80;99.90;;;;;;7337891;19;111834;-86
2023/08/05 14:00:12;;;;;;;;;;;18.80;99.90;;;;;;7340750;19;112583;-87
2023/08/05 14:02:39;;;;;;;;;;;18.90;99.90;;;;;;7345496;19;109817;-87
2023/08/05 14:05:07;;;;;;;;;;;19.00;99.90;;;;;;7339552;19;112734;-86
2023/08/05 14:07:34;;;;;;;;;;;19.10;99.90;;;;;;7338974;19;109291;-86
2023/08/05 14:10:04;;;;;;;;;;;19.10;99.90;;;;;;7336000;19;108967;-86
2023/08/05 14:12:34;;;;;;;;;;;19.10;99.90;;;;;;7331426;19;110989;-87
2023/08/05 14:15:02;;;;;;;;;;;19.10;99.90;;;;;;7332192;19;111307;-85
2023/08/05 14:17:29;;;;;;;;;;;19.10;99.90;;;;;;7334280;19;109275;-86